sensor_id;sensor_type;location;lat;lon;timestamp;pressure;altitude;pressure_sealevel;temperature;humidity
77120;BME280;66073;47.730;9.352;2024-01-30T00:00:59;98279.38;;;-0.78;100.00
77120;BME280;66073;47.730;9.352;2024-01-30T00:03:24;98287.25;;;-0.78;100.00
77120;BME280;66073;47.730;9.352;2024-01-30T00:05:50;98281.69;;;-0.83;100.00
77120;BME280;66073;47.730;9.352;2024-01-30T00:08:15;98285.13;;;-0.91;100.00
77120;BME280;66073;47.730;9.352;2024-01-30T00:10:41;98292.94;;;-1.15;100.00
77120;BME280;66073;47.730;9.352;2024-01-30T00:13:06;98289.22;;;-1.05;100.00
77120;BME280;66073;47.730;9.352;2024-01-30T00:15:32;98291.81;;;-1.13;100.00
77120;BME280;66073;47.730;9.352;2024-01-30T00:17:57;98296.09;;;-0.87;100.00
77120;BME280;66073;47.730;9.352;2024-01-30T00:20:23;98305.44;;;-0.85;100.00
77120;BME280;66073;47.730;9.352;2024-01-30T00:22:48;98301.84;;;-0.52;100.00
77120;BME280;66073;47.730;9.352;2024-01-30T00:25:14;98302.69;;;-0.43;100.00
77120;BME280;66073;47.730;9.352;2024-01-30T00:27:40;98299.88;;;-0.66;100.00
77120;BME280;66073;47.730;9.352;2024-01-30T00:30:05;98301.19;;;-0.78;100.00
77120;BME280;66073;47.730;9.352;2024-01-30T00:32:32;98303.31;;;-0.89;100.00
77120;BME280;66073;47.730;9.352;2024-01-30T00:34:57;98295.59;;;-0.75;100.00
77120;BME280;66073;47.730;9.352;2024-01-30T00:37:23;98297.75;;;-0.86;100.00
77120;BME280;66073;47.730;9.352;2024-01-30T00:39:48;98295.94;;;-0.86;100.00
77120;BME280;66073;47.730;9.352;2024-01-30T00:42:14;98300.53;;;-0.56;100.00
77120;BME280;66073;47.730;9.352;2024-01-30T00:44:40;98293.47;;;-0.63;100.00
77120;BME280;66073;47.730;9.352;2024-01-30T00:47:06;98297.72;;;-0.78;100.00
77120;BME280;66073;47.730;9.352;2024-01-30T00:49:31;98294.78;;;-0.91;100.00
77120;BME280;66073;47.730;9.352;2024-01-30T00:51:57;98294.13;;;-1.02;100.00
77120;BME280;66073;47.730;9.352;2024-01-30T00:54:22;98289.84;;;-1.11;100.00
77120;BME280;66073;47.730;9.352;2024-01-30T00:56:48;98290.84;;;-1.12;100.00
77120;BME280;66073;47.730;9.352;2024-01-30T00:59:13;98294.41;;;-1.29;100.00
77120;BME280;66073;47.730;9.352;2024-01-30T01:01:39;98289.03;;;-1.03;100.00
77120;BME280;66073;47.730;9.352;2024-01-30T01:04:04;98297.38;;;-1.00;100.00
77120;BME280;66073;47.730;9.352;2024-01-30T01:06:30;98287.25;;;-0.94;100.00
77120;BME280;66073;47.730;9.352;2024-01-30T01:08:55;98287.91;;;-1.01;100.00
77120;BME280;66073;47.730;9.352;2024-01-30T01:11:20;98301.03;;;-0.52;100.00
77120;BME280;66073;47.730;9.352;2024-01-30T01:13:47;98297.44;;;-0.51;100.00
77120;BME280;66073;47.730;9.352;2024-01-30T01:16:12;98290.84;;;-1.04;100.00
77120;BME280;66073;47.730;9.352;2024-01-30T01:18:38;98297.03;;;-1.13;100.00
77120;BME280;66073;47.730;9.352;2024-01-30T01:21:04;98295.78;;;-0.84;100.00
77120;BME280;66073;47.730;9.352;2024-01-30T01:23:30;98301.66;;;-0.74;100.00
77120;BME280;66073;47.730;9.352;2024-01-30T01:25:55;98303.16;;;-0.72;100.00
77120;BME280;66073;47.730;9.352;2024-01-30T01:28:21;98299.56;;;-0.79;100.00
77120;BME280;66073;47.730;9.352;2024-01-30T01:30:46;98309.34;;;-0.89;100.00
77120;BME280;66073;47.730;9.352;2024-01-30T01:33:11;98304.16;;;-0.73;100.00
77120;BME280;66073;47.730;9.352;2024-01-30T01:35:39;98311.84;;;-0.79;100.00
77120;BME280;66073;47.730;9.352;2024-01-30T01:38:05;98309.50;;;-1.15;100.00
77120;BME280;66073;47.730;9.352;2024-01-30T01:40:31;98303.94;;;-1.04;100.00
77120;BME280;66073;47.730;9.352;2024-01-30T01:42:56;98307.06;;;-1.00;100.00
77120;BME280;66073;47.730;9.352;2024-01-30T01:45:22;98307.72;;;-0.98;100.00
77120;BME280;66073;47.730;9.352;2024-01-30T01:47:50;98299.69;;;-1.05;100.00
77120;BME280;66073;47.730;9.352;2024-01-30T01:50:18;98303.13;;;-1.04;100.00
77120;BME280;66073;47.730;9.352;2024-01-30T01:52:47;98304.25;;;-1.15;100.00
77120;BME280;66073;47.730;9.352;2024-01-30T01:55:14;98299.81;;;-1.22;100.00
77120;BME280;66073;47.730;9.352;2024-01-30T01:57:41;98299.63;;;-1.21;100.00
77120;BME280;66073;47.730;9.352;2024-01-30T02:00:08;98299.97;;;-1.24;100.00
77120;BME280;66073;47.730;9.352;2024-01-30T02:02:36;98297.03;;;-1.29;100.00
77120;BME280;66073;47.730;9.352;2024-01-30T02:05:02;98297.00;;;-1.21;100.00
77120;BME280;66073;47.730;9.352;2024-01-30T02:07:28;98301.94;;;-1.26;100.00
77120;BME280;66073;47.730;9.352;2024-01-30T02:09:54;98299.19;;;-1.08;100.00
77120;BME280;66073;47.730;9.352;2024-01-30T02:12:20;98297.22;;;-0.98;100.00
77120;BME280;66073;47.730;9.352;2024-01-30T02:14:47;98300.19;;;-1.01;100.00
77120;BME280;66073;47.730;9.352;2024-01-30T02:17:13;98302.31;;;-1.05;100.00
77120;BME280;66073;47.730;9.352;2024-01-30T02:19:39;98297.22;;;-1.06;100.00
77120;BME280;66073;47.730;9.352;2024-01-30T02:22:05;98299.00;;;-1.07;100.00
77120;BME280;66073;47.730;9.352;2024-01-30T02:24:30;98292.34;;;-0.93;100.00
77120;BME280;66073;47.730;9.352;2024-01-30T02:26:56;98292.16;;;-1.08;100.00
77120;BME280;66073;47.730;9.352;2024-01-30T02:29:21;98287.50;;;-1.30;100.00
77120;BME280;66073;47.730;9.352;2024-01-30T02:31:47;98290.28;;;-1.39;100.00
77120;BME280;66073;47.730;9.352;2024-01-30T02:34:13;98290.47;;;-1.25;100.00
77120;BME280;66073;47.730;9.352;2024-01-30T02:36:42;98292.78;;;-1.22;100.00
77120;BME280;66073;47.730;9.352;2024-01-30T02:39:08;98282.91;;;-1.44;100.00
77120;BME280;66073;47.730;9.352;2024-01-30T02:41:33;98292.06;;;-1.32;100.00
77120;BME280;66073;47.730;9.352;2024-01-30T02:43:59;98275.94;;;-1.03;100.00
77120;BME280;66073;47.730;9.352;2024-01-30T02:46:24;98288.84;;;-1.18;100.00
77120;BME280;66073;47.730;9.352;2024-01-30T02:48:50;98288.53;;;-1.15;100.00
77120;BME280;66073;47.730;9.352;2024-01-30T02:51:17;98286.53;;;-1.29;100.00
77120;BME280;66073;47.730;9.352;2024-01-30T02:53:42;98287.22;;;-1.19;100.00
77120;BME280;66073;47.730;9.352;2024-01-30T02:56:10;98281.59;;;-1.32;100.00
77120;BME280;66073;47.730;9.352;2024-01-30T02:58:37;98291.16;;;-1.15;100.00
77120;BME280;66073;47.730;9.352;2024-01-30T03:01:03;98287.38;;;-1.12;100.00
77120;BME280;66073;47.730;9.352;2024-01-30T03:03:28;98287.22;;;-1.19;100.00
77120;BME280;66073;47.730;9.352;2024-01-30T03:05:54;98284.78;;;-1.04;100.00
77120;BME280;66073;47.730;9.352;2024-01-30T03:08:19;98289.88;;;-0.86;100.00
77120;BME280;66073;47.730;9.352;2024-01-30T03:10:45;98289.03;;;-1.03;100.00
77120;BME280;66073;47.730;9.352;2024-01-30T03:13:11;98280.59;;;-1.39;100.00
77120;BME280;66073;47.730;9.352;2024-01-30T03:15:36;98287.53;;;-1.22;100.00
77120;BME280;66073;47.730;9.352;2024-01-30T03:18:02;98281.16;;;-1.19;100.00
77120;BME280;66073;47.730;9.352;2024-01-30T03:20:30;98279.94;;;-1.41;100.00
77120;BME280;66073;47.730;9.352;2024-01-30T03:22:57;98279.19;;;-1.17;100.00
77120;BME280;66073;47.730;9.352;2024-01-30T03:25:25;98289.53;;;-0.91;100.00
77120;BME280;66073;47.730;9.352;2024-01-30T03:27:50;98273.25;;;-1.35;100.00
77120;BME280;66073;47.730;9.352;2024-01-30T03:30:16;98283.25;;;-1.31;100.00
77120;BME280;66073;47.730;9.352;2024-01-30T03:32:42;98277.06;;;-1.22;100.00
77120;BME280;66073;47.730;9.352;2024-01-30T03:35:08;98283.78;;;-1.11;100.00
77120;BME280;66073;47.730;9.352;2024-01-30T03:37:34;98278.41;;;-1.02;100.00
77120;BME280;66073;47.730;9.352;2024-01-30T03:39:59;98277.28;;;-0.83;100.00
77120;BME280;66073;47.730;9.352;2024-01-30T03:42:25;98280.06;;;-0.76;100.00
77120;BME280;66073;47.730;9.352;2024-01-30T03:44:50;98272.38;;;-0.86;100.00
77120;BME280;66073;47.730;9.352;2024-01-30T03:47:20;98273.50;;;-0.88;100.00
77120;BME280;66073;47.730;9.352;2024-01-30T03:49:46;98268.88;;;-1.03;100.00
77120;BME280;66073;47.730;9.352;2024-01-30T03:52:13;98274.00;;;-0.77;100.00
77120;BME280;66073;47.730;9.352;2024-01-30T03:54:38;98270.88;;;-0.80;100.00
77120;BME280;66073;47.730;9.352;2024-01-30T03:57:04;98268.88;;;-1.03;100.00
77120;BME280;66073;47.730;9.352;2024-01-30T03:59:30;98271.34;;;-0.85;100.00
77120;BME280;66073;47.730;9.352;2024-01-30T04:01:56;98268.75;;;-1.01;100.00
77120;BME280;66073;47.730;9.352;2024-01-30T04:04:21;98258.22;;;-1.17;100.00
77120;BME280;66073;47.730;9.352;2024-01-30T04:06:48;98259.69;;;-1.31;100.00
77120;BME280;66073;47.730;9.352;2024-01-30T04:09:14;98274.25;;;-1.20;100.00
77120;BME280;66073;47.730;9.352;2024-01-30T04:11:40;98265.47;;;-1.11;100.00
77120;BME280;66073;47.730;9.352;2024-01-30T04:14:06;98269.38;;;-0.75;100.00
77120;BME280;66073;47.730;9.352;2024-01-30T04:16:31;98260.06;;;-0.69;100.00
77120;BME280;66073;47.730;9.352;2024-01-30T04:18:57;98263.69;;;-0.54;100.00
77120;BME280;66073;47.730;9.352;2024-01-30T04:21:23;98265.94;;;-0.67;100.00
77120;BME280;66073;47.730;9.352;2024-01-30T04:23:50;98265.25;;;-1.34;100.00
77120;BME280;66073;47.730;9.352;2024-01-30T04:26:15;98273.25;;;-1.43;100.00
77120;BME280;66073;47.730;9.352;2024-01-30T04:28:41;98269.50;;;-1.33;100.00
77120;BME280;66073;47.730;9.352;2024-01-30T04:31:07;98270.06;;;-0.81;100.00
77120;BME280;66073;47.730;9.352;2024-01-30T04:33:33;98266.59;;;-0.49;100.00
77120;BME280;66073;47.730;9.352;2024-01-30T04:35:58;98263.97;;;-0.49;100.00
77120;BME280;66073;47.730;9.352;2024-01-30T04:38:24;98257.94;;;-0.58;100.00
77120;BME280;66073;47.730;9.352;2024-01-30T04:40:49;98268.91;;;-0.86;100.00
77120;BME280;66073;47.730;9.352;2024-01-30T04:43:15;98259.53;;;-1.13;100.00
77120;BME280;66073;47.730;9.352;2024-01-30T04:45:41;98267.13;;;-0.86;100.00
77120;BME280;66073;47.730;9.352;2024-01-30T04:48:07;98259.59;;;-0.65;100.00
77120;BME280;66073;47.730;9.352;2024-01-30T04:50:32;98270.03;;;-0.48;100.00
77120;BME280;66073;47.730;9.352;2024-01-30T04:52:58;98257.75;;;-0.48;100.00
77120;BME280;66073;47.730;9.352;2024-01-30T04:55:23;98262.03;;;-0.55;100.00
77120;BME280;66073;47.730;9.352;2024-01-30T04:57:49;98262.69;;;-0.61;100.00
77120;BME280;66073;47.730;9.352;2024-01-30T05:00:15;98263.16;;;-0.98;100.00
77120;BME280;66073;47.730;9.352;2024-01-30T05:02:41;98265.28;;;-1.02;100.00
77120;BME280;66073;47.730;9.352;2024-01-30T05:05:06;98269.25;;;-0.89;100.00
77120;BME280;66073;47.730;9.352;2024-01-30T05:07:33;98279.56;;;-1.04;100.00
77120;BME280;66073;47.730;9.352;2024-01-30T05:09:59;98278.41;;;-1.02;100.00
77120;BME280;66073;47.730;9.352;2024-01-30T05:12:25;98280.34;;;-1.12;100.00
77120;BME280;66073;47.730;9.352;2024-01-30T05:14:50;98276.75;;;-1.11;100.00
77120;BME280;66073;47.730;9.352;2024-01-30T05:17:16;98284.31;;;-0.91;100.00
77120;BME280;66073;47.730;9.352;2024-01-30T05:19:43;98280.03;;;-0.92;100.00
77120;BME280;66073;47.730;9.352;2024-01-30T05:22:08;98287.25;;;-0.78;100.00
77120;BME280;66073;47.730;9.352;2024-01-30T05:24:36;98279.06;;;-0.83;100.00
77120;BME280;66073;47.730;9.352;2024-01-30T05:27:01;98295.59;;;-0.75;100.00
77120;BME280;66073;47.730;9.352;2024-01-30T05:29:28;98285.13;;;-0.75;100.00
77120;BME280;66073;47.730;9.352;2024-01-30T05:31:53;98292.19;;;-0.51;100.00
77120;BME280;66073;47.730;9.352;2024-01-30T05:34:18;98289.56;;;-0.59;100.00
77120;BME280;66073;47.730;9.352;2024-01-30T05:36:44;98291.84;;;-0.48;100.00
77120;BME280;66073;47.730;9.352;2024-01-30T05:39:09;98299.06;;;-0.42;100.00
77120;BME280;66073;47.730;9.352;2024-01-30T05:41:35;98295.44;;;-0.49;100.00
77120;BME280;66073;47.730;9.352;2024-01-30T05:44:01;98283.66;;;-0.53;100.00
77120;BME280;66073;47.730;9.352;2024-01-30T05:46:27;98289.88;;;-0.94;100.00
77120;BME280;66073;47.730;9.352;2024-01-30T05:48:52;98294.81;;;-0.75;100.00
77120;BME280;66073;47.730;9.352;2024-01-30T05:51:18;98296.25;;;-0.81;100.00
77120;BME280;66073;47.730;9.352;2024-01-30T05:53:43;98302.31;;;-0.88;100.00
77120;BME280;66073;47.730;9.352;2024-01-30T05:56:09;98297.72;;;-0.78;100.00
77120;BME280;66073;47.730;9.352;2024-01-30T05:58:34;98301.34;;;-0.71;100.00
77120;BME280;66073;47.730;9.352;2024-01-30T06:01:00;98295.59;;;-0.91;100.00
77120;BME280;66073;47.730;9.352;2024-01-30T06:03:25;98301.47;;;-1.05;100.00
77120;BME280;66073;47.730;9.352;2024-01-30T06:05:51;98295.91;;;-1.18;100.00
77120;BME280;66073;47.730;9.352;2024-01-30T06:08:17;98297.09;;;-0.96;100.00
77120;BME280;66073;47.730;9.352;2024-01-30T06:10:43;98296.44;;;-0.90;100.00
77120;BME280;66073;47.730;9.352;2024-01-30T06:13:08;98298.06;;;-0.73;100.00
77120;BME280;66073;47.730;9.352;2024-01-30T06:15:33;98295.75;;;-0.92;100.00
77120;BME280;66073;47.730;9.352;2024-01-30T06:17:59;98292.13;;;-1.00;100.00
77120;BME280;66073;47.730;9.352;2024-01-30T06:20:25;98294.97;;;-1.51;100.00
77120;BME280;66073;47.730;9.352;2024-01-30T06:22:50;98298.44;;;-1.84;100.00
77120;BME280;66073;47.730;9.352;2024-01-30T06:25:16;98309.25;;;-1.79;100.00
77120;BME280;66073;47.730;9.352;2024-01-30T06:27:42;98305.13;;;-1.48;100.00
77120;BME280;66073;47.730;9.352;2024-01-30T06:30:08;98310.00;;;-1.95;100.00
77120;BME280;66073;47.730;9.352;2024-01-30T06:32:35;98304.06;;;-2.05;100.00
77120;BME280;66073;47.730;9.352;2024-01-30T06:35:01;98311.28;;;-1.65;100.00
77120;BME280;66073;47.730;9.352;2024-01-30T06:37:27;98315.28;;;-1.45;100.00
77120;BME280;66073;47.730;9.352;2024-01-30T06:39:53;98306.47;;;-1.78;100.00
77120;BME280;66073;47.730;9.352;2024-01-30T06:42:19;98310.88;;;-1.78;100.00
77120;BME280;66073;47.730;9.352;2024-01-30T06:44:44;98308.75;;;-1.83;100.00
77120;BME280;66073;47.730;9.352;2024-01-30T06:47:10;98318.41;;;-1.83;100.00
77120;BME280;66073;47.730;9.352;2024-01-30T06:49:35;98310.41;;;-1.74;100.00
77120;BME280;66073;47.730;9.352;2024-01-30T06:52:05;98311.19;;;-1.81;100.00
77120;BME280;66073;47.730;9.352;2024-01-30T06:54:30;98315.09;;;-1.85;100.00
77120;BME280;66073;47.730;9.352;2024-01-30T06:56:56;98313.69;;;-2.06;100.00
77120;BME280;66073;47.730;9.352;2024-01-30T06:59:21;98322.22;;;-2.04;100.00
77120;BME280;66073;47.730;9.352;2024-01-30T07:01:47;98326.91;;;-1.81;100.00
77120;BME280;66073;47.730;9.352;2024-01-30T07:04:13;98321.06;;;-1.67;100.00
77120;BME280;66073;47.730;9.352;2024-01-30T07:06:38;98335.81;;;-1.66;100.00
77120;BME280;66073;47.730;9.352;2024-01-30T07:09:04;98330.56;;;-1.66;100.00
77120;BME280;66073;47.730;9.352;2024-01-30T07:11:30;98321.31;;;-1.53;100.00
77120;BME280;66073;47.730;9.352;2024-01-30T07:13:56;98323.97;;;-1.44;100.00
77120;BME280;66073;47.730;9.352;2024-01-30T07:16:21;98322.56;;;-1.23;100.00
77120;BME280;66073;47.730;9.352;2024-01-30T07:18:47;98328.16;;;-1.10;100.00
77120;BME280;66073;47.730;9.352;2024-01-30T07:21:13;98331.34;;;-1.32;100.00
77120;BME280;66073;47.730;9.352;2024-01-30T07:23:38;98330.03;;;-1.44;100.00
77120;BME280;66073;47.730;9.352;2024-01-30T07:26:05;98325.22;;;-1.15;100.00
77120;BME280;66073;47.730;9.352;2024-01-30T07:28:32;98332.09;;;-1.06;100.00
77120;BME280;66073;47.730;9.352;2024-01-30T07:30:57;98335.53;;;-1.05;100.00
77120;BME280;66073;47.730;9.352;2024-01-30T07:33:23;98333.38;;;-1.26;100.00
77120;BME280;66073;47.730;9.352;2024-01-30T07:35:48;98335.38;;;-1.12;100.00
77120;BME280;66073;47.730;9.352;2024-01-30T07:38:14;98337.00;;;-1.11;100.00
77120;BME280;66073;47.730;9.352;2024-01-30T07:40:39;98333.06;;;-1.15;100.00
77120;BME280;66073;47.730;9.352;2024-01-30T07:43:06;98332.78;;;-0.95;100.00
77120;BME280;66073;47.730;9.352;2024-01-30T07:45:31;98343.31;;;-0.63;100.00
77120;BME280;66073;47.730;9.352;2024-01-30T07:47:58;98338.22;;;-0.24;100.00
77120;BME280;66073;47.730;9.352;2024-01-30T07:50:25;98333.13;;;-0.18;100.00
77120;BME280;66073;47.730;9.352;2024-01-30T07:52:51;98333.28;;;-0.03;100.00
77120;BME280;66073;47.730;9.352;2024-01-30T07:55:20;98336.84;;;0.12;100.00
77120;BME280;66073;47.730;9.352;2024-01-30T07:57:52;98338.00;;;0.18;100.00
77120;BME280;66073;47.730;9.352;2024-01-30T08:00:19;98336.97;;;0.35;100.00
77120;BME280;66073;47.730;9.352;2024-01-30T08:02:47;98345.84;;;0.34;100.00
77120;BME280;66073;47.730;9.352;2024-01-30T08:05:13;98342.22;;;0.35;100.00
77120;BME280;66073;47.730;9.352;2024-01-30T08:07:41;98343.88;;;0.28;100.00
77120;BME280;66073;47.730;9.352;2024-01-30T08:10:08;98346.16;;;0.31;100.00
77120;BME280;66073;47.730;9.352;2024-01-30T08:12:33;98350.84;;;0.60;100.00
77120;BME280;66073;47.730;9.352;2024-01-30T08:14:59;98349.66;;;0.62;100.00
77120;BME280;66073;47.730;9.352;2024-01-30T08:17:24;98350.38;;;0.56;100.00
77120;BME280;66073;47.730;9.352;2024-01-30T08:19:50;98354.34;;;0.44;100.00
77120;BME280;66073;47.730;9.352;2024-01-30T08:22:15;98356.66;;;0.39;100.00
77120;BME280;66073;47.730;9.352;2024-01-30T08:24:43;98344.75;;;0.67;100.00
77120;BME280;66073;47.730;9.352;2024-01-30T08:27:09;98349.66;;;0.70;100.00
77120;BME280;66073;47.730;9.352;2024-01-30T08:29:37;98348.13;;;0.76;100.00
77120;BME280;66073;47.730;9.352;2024-01-30T08:32:05;98344.00;;;0.81;100.00
77120;BME280;66073;47.730;9.352;2024-01-30T08:34:30;98346.47;;;0.83;100.00
77120;BME280;66073;47.730;9.352;2024-01-30T08:36:56;98359.50;;;0.21;100.00
77120;BME280;66073;47.730;9.352;2024-01-30T08:39:21;98356.19;;;0.35;100.00
77120;BME280;66073;47.730;9.352;2024-01-30T08:41:47;98362.19;;;0.52;100.00
77120;BME280;66073;47.730;9.352;2024-01-30T08:44:12;98360.13;;;0.78;100.00
77120;BME280;66073;47.730;9.352;2024-01-30T08:46:38;98361.31;;;0.21;100.00
77120;BME280;66073;47.730;9.352;2024-01-30T08:49:03;98363.63;;;-0.25;100.00
77120;BME280;66073;47.730;9.352;2024-01-30T08:51:31;98366.25;;;-0.17;100.00
77120;BME280;66073;47.730;9.352;2024-01-30T08:53:56;98366.22;;;0.08;100.00
77120;BME280;66073;47.730;9.352;2024-01-30T08:56:22;98360.44;;;0.75;100.00
77120;BME280;66073;47.730;9.352;2024-01-30T08:58:48;98368.41;;;0.98;100.00
77120;BME280;66073;47.730;9.352;2024-01-30T09:01:14;98369.41;;;0.50;100.00
77120;BME280;66073;47.730;9.352;2024-01-30T09:03:39;98369.88;;;-0.58;100.00
77120;BME280;66073;47.730;9.352;2024-01-30T09:06:10;98380.22;;;0.00;100.00
77120;BME280;66073;47.730;9.352;2024-01-30T09:08:35;98377.16;;;0.43;100.00
77120;BME280;66073;47.730;9.352;2024-01-30T09:11:08;98388.88;;;0.09;100.00
77120;BME280;66073;47.730;9.352;2024-01-30T09:13:33;98376.09;;;-0.35;100.00
77120;BME280;66073;47.730;9.352;2024-01-30T09:15:59;98385.06;;;0.35;100.00
77120;BME280;66073;47.730;9.352;2024-01-30T09:18:24;98380.97;;;0.80;100.00
77120;BME280;66073;47.730;9.352;2024-01-30T09:20:50;98381.78;;;0.80;100.00
77120;BME280;66073;47.730;9.352;2024-01-30T09:23:15;98369.47;;;0.26;100.00
77120;BME280;66073;47.730;9.352;2024-01-30T09:25:42;98378.84;;;0.28;100.00
77120;BME280;66073;47.730;9.352;2024-01-30T09:28:08;98385.13;;;0.66;100.00
77120;BME280;66073;47.730;9.352;2024-01-30T09:30:34;98372.44;;;0.31;100.00
77120;BME280;66073;47.730;9.352;2024-01-30T09:32:59;98372.59;;;0.84;100.00
77120;BME280;66073;47.730;9.352;2024-01-30T09:35:25;98376.13;;;1.53;100.00
77120;BME280;66073;47.730;9.352;2024-01-30T09:37:50;98378.22;;;0.73;100.00
77120;BME280;66073;47.730;9.352;2024-01-30T09:40:17;98383.34;;;0.59;100.00
77120;BME280;66073;47.730;9.352;2024-01-30T09:42:46;98389.66;;;0.88;100.00
77120;BME280;66073;47.730;9.352;2024-01-30T09:45:14;98380.94;;;0.49;100.00
77120;BME280;66073;47.730;9.352;2024-01-30T09:47:43;98383.19;;;1.30;100.00
77120;BME280;66073;47.730;9.352;2024-01-30T09:50:11;98380.13;;;0.87;100.00
77120;BME280;66073;47.730;9.352;2024-01-30T09:52:37;98372.56;;;0.92;100.00
77120;BME280;66073;47.730;9.352;2024-01-30T09:55:03;98375.03;;;1.17;100.00
77120;BME280;66073;47.730;9.352;2024-01-30T09:57:29;98380.19;;;1.33;100.00
77120;BME280;66073;47.730;9.352;2024-01-30T09:59:55;98378.69;;;1.84;100.00
77120;BME280;66073;47.730;9.352;2024-01-30T10:02:21;98370.88;;;2.28;100.00
77120;BME280;66073;47.730;9.352;2024-01-30T10:04:51;98375.06;;;1.62;100.00
77120;BME280;66073;47.730;9.352;2024-01-30T10:07:18;98369.03;;;1.31;100.00
77120;BME280;66073;47.730;9.352;2024-01-30T10:09:44;98367.69;;;1.58;100.00
77120;BME280;66073;47.730;9.352;2024-01-30T10:12:10;98375.09;;;1.99;100.00
77120;BME280;66073;47.730;9.352;2024-01-30T10:14:39;98365.25;;;1.56;100.00
77120;BME280;66073;47.730;9.352;2024-01-30T10:17:07;98365.34;;;1.85;100.00
77120;BME280;66073;47.730;9.352;2024-01-30T10:19:33;98358.88;;;0.97;100.00
77120;BME280;66073;47.730;9.352;2024-01-30T10:22:00;98374.78;;;2.17;100.00
77120;BME280;66073;47.730;9.352;2024-01-30T10:24:26;98359.53;;;2.27;100.00
77120;BME280;66073;47.730;9.352;2024-01-30T10:26:53;98358.19;;;2.46;100.00
77120;BME280;66073;47.730;9.352;2024-01-30T10:29:19;98361.81;;;2.74;100.00
77120;BME280;66073;47.730;9.352;2024-01-30T10:31:44;98372.25;;;1.41;100.00
77120;BME280;66073;47.730;9.352;2024-01-30T10:34:10;98376.94;;;2.28;100.00
77120;BME280;66073;47.730;9.352;2024-01-30T10:36:46;98366.88;;;2.76;100.00
77120;BME280;66073;47.730;9.352;2024-01-30T10:39:17;98369.06;;;2.14;100.00
77120;BME280;66073;47.730;9.352;2024-01-30T10:41:44;98364.47;;;2.08;100.00
77120;BME280;66073;47.730;9.352;2024-01-30T10:44:10;98357.59;;;2.21;100.00
77120;BME280;66073;47.730;9.352;2024-01-30T10:46:38;98357.22;;;2.97;100.00
77120;BME280;66073;47.730;9.352;2024-01-30T10:49:05;98347.25;;;3.14;100.00
77120;BME280;66073;47.730;9.352;2024-01-30T10:51:32;98343.84;;;3.35;100.00
77120;BME280;66073;47.730;9.352;2024-01-30T10:53:58;98345.13;;;3.60;100.00
77120;BME280;66073;47.730;9.352;2024-01-30T10:56:25;98341.44;;;3.82;100.00
77120;BME280;66073;47.730;9.352;2024-01-30T10:58:52;98332.28;;;3.36;100.00
77120;BME280;66073;47.730;9.352;2024-01-30T11:01:22;98341.91;;;3.08;100.00
77120;BME280;66073;47.730;9.352;2024-01-30T11:03:52;98340.56;;;3.54;100.00
77120;BME280;66073;47.730;9.352;2024-01-30T11:06:18;98339.16;;;4.00;100.00
77120;BME280;66073;47.730;9.352;2024-01-30T11:08:47;98336.38;;;2.52;100.00
77120;BME280;66073;47.730;9.352;2024-01-30T11:11:25;98329.19;;;2.96;100.00
77120;BME280;66073;47.730;9.352;2024-01-30T11:13:50;98339.31;;;3.29;100.00
77120;BME280;66073;47.730;9.352;2024-01-30T11:16:16;98339.25;;;2.13;100.00
77120;BME280;66073;47.730;9.352;2024-01-30T11:18:41;98342.97;;;2.19;100.00
77120;BME280;66073;47.730;9.352;2024-01-30T11:21:07;98338.97;;;2.81;100.00
77120;BME280;66073;47.730;9.352;2024-01-30T11:23:34;98341.63;;;2.52;100.00
77120;BME280;66073;47.730;9.352;2024-01-30T11:26:00;98335.09;;;2.48;100.00
77120;BME280;66073;47.730;9.352;2024-01-30T11:28:32;98334.84;;;2.93;100.00
77120;BME280;66073;47.730;9.352;2024-01-30T11:31:03;98325.75;;;3.53;100.00
77120;BME280;66073;47.730;9.352;2024-01-30T11:33:30;98321.50;;;3.80;100.00
77120;BME280;66073;47.730;9.352;2024-01-30T11:35:58;98304.53;;;4.58;100.00
77120;BME280;66073;47.730;9.352;2024-01-30T11:38:28;98311.34;;;3.77;100.00
77120;BME280;66073;47.730;9.352;2024-01-30T11:40:56;98312.50;;;3.95;100.00
77120;BME280;66073;47.730;9.352;2024-01-30T11:43:22;98302.34;;;3.71;100.00
77120;BME280;66073;47.730;9.352;2024-01-30T11:45:49;98303.81;;;2.74;100.00
77120;BME280;66073;47.730;9.352;2024-01-30T11:48:15;98300.81;;;3.34;100.00
77120;BME280;66073;47.730;9.352;2024-01-30T11:50:40;98307.97;;;2.83;100.00
77120;BME280;66073;47.730;9.352;2024-01-30T11:53:06;98300.47;;;3.44;100.00
77120;BME280;66073;47.730;9.352;2024-01-30T11:55:33;98297.03;;;3.22;100.00
77120;BME280;66073;47.730;9.352;2024-01-30T11:57:59;98307.75;;;2.99;100.00
77120;BME280;66073;47.730;9.352;2024-01-30T12:00:25;98300.97;;;2.76;100.00
77120;BME280;66073;47.730;9.352;2024-01-30T12:02:52;98297.09;;;3.29;100.00
77120;BME280;66073;47.730;9.352;2024-01-30T12:05:21;98286.78;;;3.55;100.00
77120;BME280;66073;47.730;9.352;2024-01-30T12:07:47;98282.00;;;4.21;100.00
77120;BME280;66073;47.730;9.352;2024-01-30T12:10:13;98283.59;;;3.87;100.00
77120;BME280;66073;47.730;9.352;2024-01-30T12:12:43;98279.50;;;4.54;100.00
77120;BME280;66073;47.730;9.352;2024-01-30T12:15:08;98273.75;;;4.03;100.00
77120;BME280;66073;47.730;9.352;2024-01-30T12:17:34;98264.69;;;4.59;100.00
77120;BME280;66073;47.730;9.352;2024-01-30T12:20:14;98274.31;;;4.32;100.00
77120;BME280;66073;47.730;9.352;2024-01-30T12:22:42;98273.31;;;4.33;100.00
77120;BME280;66073;47.730;9.352;2024-01-30T12:25:10;98273.09;;;4.00;100.00
77120;BME280;66073;47.730;9.352;2024-01-30T12:27:37;98284.34;;;4.09;100.00
77120;BME280;66073;47.730;9.352;2024-01-30T12:30:10;98268.69;;;4.42;100.00
77120;BME280;66073;47.730;9.352;2024-01-30T12:32:44;98271.63;;;4.60;100.00
77120;BME280;66073;47.730;9.352;2024-01-30T12:35:14;98274.13;;;4.81;100.00
77120;BME280;66073;47.730;9.352;2024-01-30T12:37:41;98267.25;;;4.93;100.00
77120;BME280;66073;47.730;9.352;2024-01-30T12:40:08;98268.81;;;4.75;100.00
77120;BME280;66073;47.730;9.352;2024-01-30T12:42:34;98267.19;;;4.74;100.00
77120;BME280;66073;47.730;9.352;2024-01-30T12:45:02;98265.09;;;4.22;100.00
77120;BME280;66073;47.730;9.352;2024-01-30T12:47:28;98260.28;;;4.79;100.00